createdAt,value
2017-05-09T00:00:21.374Z,16.74
2017-05-09T00:01:30.207Z,16.74
2017-05-09T00:02:39.039Z,16.73
2017-05-09T00:03:47.885Z,16.59
2017-05-09T00:04:56.717Z,16.58
2017-05-09T00:06:05.555Z,16.59
2017-05-09T00:07:14.387Z,16.63
2017-05-09T00:08:23.224Z,16.67
2017-05-09T00:09:32.090Z,16.63
2017-05-09T00:10:40.924Z,16.58
2017-05-09T00:11:49.758Z,16.55
2017-05-09T00:12:58.597Z,16.53
2017-05-09T00:14:07.436Z,16.65
2017-05-09T00:15:16.274Z,16.59
2017-05-09T00:16:25.110Z,16.59
2017-05-09T00:17:33.941Z,16.56
2017-05-09T00:18:43.092Z,16.44
2017-05-09T00:19:51.925Z,16.47
2017-05-09T00:21:00.762Z,16.42
2017-05-09T00:22:09.914Z,16.41
2017-05-09T00:23:18.748Z,16.52
2017-05-09T00:24:27.755Z,16.35
2017-05-09T00:25:36.589Z,16.3
2017-05-09T00:26:45.422Z,16.34
2017-05-09T00:27:54.560Z,16.32
2017-05-09T00:29:03.402Z,16.18
2017-05-09T00:30:12.238Z,16.35
2017-05-09T00:31:21.065Z,16.22
2017-05-09T00:32:29.902Z,16.23
2017-05-09T00:33:38.732Z,16.22
2017-05-09T00:34:47.570Z,16.15
2017-05-09T00:35:56.407Z,16.17
2017-05-09T00:37:05.240Z,16.25
2017-05-09T00:38:14.085Z,16.22
2017-05-09T00:39:22.917Z,16.11
2017-05-09T00:40:31.763Z,16.01
2017-05-09T00:41:40.591Z,16.1
2017-05-09T00:42:49.430Z,15.97
2017-05-09T00:43:58.269Z,16.01
2017-05-09T00:45:07.100Z,15.94
2017-05-09T00:46:15.960Z,15.89
2017-05-09T00:47:24.795Z,15.92
2017-05-09T00:48:33.620Z,15.96
2017-05-09T00:49:42.460Z,15.91
2017-05-09T00:50:51.301Z,16
2017-05-09T00:52:00.138Z,15.88
2017-05-09T00:53:08.979Z,15.86
2017-05-09T00:54:17.806Z,15.92
2017-05-09T00:55:26.636Z,15.86
2017-05-09T00:56:35.464Z,15.76
2017-05-09T00:57:44.302Z,15.88
2017-05-09T00:58:53.140Z,15.86
2017-05-09T01:00:02.293Z,15.85
2017-05-09T01:01:11.124Z,15.81
2017-05-09T01:02:19.953Z,15.91
2017-05-09T01:03:28.782Z,15.85
2017-05-09T01:04:37.619Z,15.82
2017-05-09T01:05:46.445Z,15.78
2017-05-09T01:06:55.277Z,15.71
2017-05-09T01:08:04.113Z,15.74
2017-05-09T01:09:12.944Z,15.67
2017-05-09T01:10:21.774Z,15.76
2017-05-09T01:11:30.609Z,15.69
2017-05-09T01:12:39.437Z,15.69
2017-05-09T01:13:48.277Z,15.71
2017-05-09T01:14:57.108Z,15.66
2017-05-09T01:16:05.940Z,15.61
2017-05-09T01:17:14.770Z,15.73
2017-05-09T01:18:23.609Z,15.67
2017-05-09T01:19:32.446Z,15.74
2017-05-09T01:20:41.596Z,15.66
2017-05-09T01:21:50.429Z,15.52
2017-05-09T01:22:59.263Z,15.64
2017-05-09T01:24:08.103Z,15.55
2017-05-09T01:25:17.250Z,15.63
2017-05-09T01:26:26.082Z,15.55
2017-05-09T01:27:34.916Z,15.51
2017-05-09T01:28:44.077Z,15.53
2017-05-09T01:29:52.917Z,15.51
2017-05-09T01:31:01.798Z,15.45
2017-05-09T01:32:10.636Z,15.52
2017-05-09T01:33:19.784Z,15.49
2017-05-09T01:34:28.934Z,15.52
2017-05-09T01:35:37.769Z,15.53
2017-05-09T01:36:46.628Z,15.52
2017-05-09T01:37:55.459Z,15.45
2017-05-09T01:39:04.291Z,15.51
2017-05-09T01:40:13.448Z,15.52
2017-05-09T01:41:22.273Z,15.49
2017-05-09T01:42:31.107Z,15.45
2017-05-09T01:43:39.936Z,15.42
2017-05-09T01:44:49.093Z,15.41
2017-05-09T01:45:57.956Z,15.38
2017-05-09T01:47:06.788Z,15.41
2017-05-09T01:48:15.622Z,15.42
2017-05-09T01:49:24.446Z,15.41
2017-05-09T01:50:33.287Z,15.48
2017-05-09T01:51:42.115Z,15.37
2017-05-09T01:52:50.958Z,15.42
2017-05-09T01:53:59.809Z,15.44
2017-05-09T01:55:08.631Z,15.34
2017-05-09T01:56:17.475Z,15.31
2017-05-09T01:57:26.305Z,15.34
2017-05-09T01:58:35.134Z,15.42
2017-05-09T01:59:43.994Z,15.36
2017-05-09T02:00:53.149Z,15.41
2017-05-09T02:02:01.974Z,15.37
2017-05-09T02:03:10.803Z,15.31
2017-05-09T02:04:19.645Z,15.31
2017-05-09T02:05:28.475Z,15.26
2017-05-09T02:06:37.317Z,15.28
2017-05-09T02:07:48.534Z,15.28
2017-05-09T02:08:57.696Z,15.42
2017-05-09T02:10:06.946Z,15.31
2017-05-09T02:11:15.795Z,15.26
2017-05-09T02:12:24.626Z,15.27
2017-05-09T02:13:33.461Z,15.33
2017-05-09T02:14:42.291Z,15.3
2017-05-09T02:15:51.118Z,15.28
2017-05-09T02:16:59.959Z,15.3
2017-05-09T02:18:08.795Z,15.24
2017-05-09T02:19:17.625Z,15.28
2017-05-09T02:20:26.771Z,15.27
2017-05-09T02:21:35.599Z,15.16
2017-05-09T02:22:44.435Z,15.24
2017-05-09T02:23:53.273Z,15.12
2017-05-09T02:25:02.113Z,15.13
2017-05-09T02:26:10.941Z,15.15
2017-05-09T02:27:19.771Z,15.28
2017-05-09T02:28:28.602Z,15.16
2017-05-09T02:29:37.434Z,15.13
2017-05-09T02:30:46.269Z,15.21
2017-05-09T02:31:55.097Z,15.26
2017-05-09T02:33:03.932Z,15.23
2017-05-09T02:34:12.764Z,15.16
2017-05-09T02:35:21.597Z,15.16
2017-05-09T02:36:30.426Z,15.11
2017-05-09T02:37:39.273Z,15.12
2017-05-09T02:38:48.420Z,15.15
2017-05-09T02:39:57.247Z,15.13
2017-05-09T02:41:06.095Z,15.13
2017-05-09T02:42:14.926Z,15.08
2017-05-09T02:43:23.767Z,15.12
2017-05-09T02:44:32.604Z,15.12
2017-05-09T02:45:41.437Z,15.09
2017-05-09T02:46:50.269Z,15.11
2017-05-09T02:47:59.111Z,15.13
2017-05-09T02:49:07.952Z,15.13
2017-05-09T02:50:16.784Z,15.15
2017-05-09T02:51:25.616Z,15.18
2017-05-09T02:52:34.444Z,15.12
2017-05-09T02:53:43.310Z,15.12
2017-05-09T02:54:52.148Z,15.13
2017-05-09T02:56:00.983Z,15.13
2017-05-09T02:57:09.816Z,15.21
2017-05-09T02:58:18.653Z,15.12
2017-05-09T02:59:27.494Z,15.08
2017-05-09T03:00:36.328Z,15.06
2017-05-09T03:01:45.165Z,15.11
2017-05-09T03:02:54.000Z,15.11
2017-05-09T03:04:02.835Z,15.06
2017-05-09T03:05:11.674Z,15.12
2017-05-09T03:06:20.504Z,15.04
2017-05-09T03:07:29.336Z,15.09
2017-05-09T03:08:38.168Z,15.08
2017-05-09T03:09:47.003Z,15
2017-05-09T03:10:55.837Z,15
2017-05-09T03:12:04.666Z,14.96
2017-05-09T03:13:13.500Z,14.87
2017-05-09T03:14:22.330Z,14.88
2017-05-09T03:15:31.167Z,14.98
2017-05-09T03:16:39.992Z,14.91
2017-05-09T03:17:48.821Z,14.98
2017-05-09T03:18:57.660Z,15.04
2017-05-09T03:20:06.491Z,15.06
2017-05-09T03:21:15.321Z,14.97
2017-05-09T03:22:24.181Z,15.04
2017-05-09T03:23:33.337Z,14.91
2017-05-09T03:24:42.169Z,14.91
2017-05-09T03:25:51.003Z,14.9
2017-05-09T03:26:59.837Z,14.82
2017-05-09T03:28:08.674Z,14.86
2017-05-09T03:29:17.814Z,14.93
2017-05-09T03:30:26.656Z,14.98
2017-05-09T03:31:35.490Z,15.05
2017-05-09T03:32:44.319Z,14.91
2017-05-09T03:33:53.472Z,14.93
2017-05-09T03:35:02.313Z,14.91
2017-05-09T03:36:11.146Z,14.93
2017-05-09T03:37:19.979Z,14.98
2017-05-09T03:38:28.817Z,14.98
2017-05-09T03:39:37.646Z,15.08
2017-05-09T03:40:46.477Z,14.98
2017-05-09T03:41:55.312Z,14.98
2017-05-09T03:43:04.152Z,15
2017-05-09T03:44:12.995Z,14.91
2017-05-09T03:45:21.819Z,14.9
2017-05-09T03:46:30.646Z,14.9
2017-05-09T03:47:39.484Z,14.91
2017-05-09T03:48:48.319Z,14.91
2017-05-09T03:49:57.152Z,14.8
2017-05-09T03:51:06.013Z,14.82
2017-05-09T03:52:14.838Z,14.82
2017-05-09T03:53:23.669Z,14.79
2017-05-09T03:54:32.503Z,14.82
2017-05-09T03:55:41.653Z,14.86
2017-05-09T03:56:50.486Z,14.79
2017-05-09T03:57:59.319Z,14.9
2017-05-09T03:59:08.146Z,14.75
2017-05-09T04:00:16.981Z,14.9
2017-05-09T04:01:25.809Z,14.82
2017-05-09T04:02:34.643Z,14.8
2017-05-09T04:03:43.811Z,14.8
2017-05-09T04:04:52.644Z,14.84
2017-05-09T04:06:01.476Z,14.8
2017-05-09T04:07:10.324Z,14.8
2017-05-09T04:08:19.155Z,14.8
2017-05-09T04:09:27.987Z,14.8
2017-05-09T04:10:37.139Z,14.87
2017-05-09T04:11:46.614Z,14.9
2017-05-09T04:12:55.443Z,14.9
2017-05-09T04:14:04.276Z,14.91
2017-05-09T04:15:13.115Z,14.91
2017-05-09T04:16:21.946Z,14.93
2017-05-09T04:17:30.777Z,14.88
2017-05-09T04:18:39.614Z,14.86
2017-05-09T04:19:48.445Z,14.9
2017-05-09T04:20:57.279Z,14.82
2017-05-09T04:22:06.106Z,14.86
2017-05-09T04:23:14.941Z,14.82
2017-05-09T04:24:23.776Z,14.75
2017-05-09T04:25:32.618Z,14.82
2017-05-09T04:26:41.447Z,14.82
2017-05-09T04:27:50.288Z,14.8
2017-05-09T04:28:59.127Z,14.8
2017-05-09T04:30:07.953Z,14.82
2017-05-09T04:31:16.790Z,14.82
2017-05-09T04:32:25.938Z,14.82
2017-05-09T04:33:34.766Z,14.87
2017-05-09T04:34:43.617Z,14.82
2017-05-09T04:35:52.442Z,14.82
2017-05-09T04:37:01.591Z,14.78
2017-05-09T04:38:10.419Z,14.7
2017-05-09T04:39:19.255Z,14.71
2017-05-09T04:40:28.087Z,14.78
2017-05-09T04:41:36.954Z,14.65
2017-05-09T04:42:46.109Z,14.79
2017-05-09T04:43:54.942Z,14.82
2017-05-09T04:45:03.777Z,14.88
2017-05-09T04:46:12.612Z,14.84
2017-05-09T04:47:21.478Z,14.82
2017-05-09T04:48:30.309Z,14.79
2017-05-09T04:49:39.139Z,14.8
2017-05-09T04:50:47.963Z,14.79
2017-05-09T04:51:56.794Z,14.84
2017-05-09T04:53:05.629Z,14.87
2017-05-09T04:54:14.459Z,14.9
2017-05-09T04:55:23.284Z,14.84
2017-05-09T04:56:32.111Z,14.78
2017-05-09T04:57:40.948Z,14.68
2017-05-09T04:58:49.781Z,14.65
2017-05-09T04:59:58.618Z,14.71
2017-05-09T05:01:07.767Z,14.67
2017-05-09T05:02:16.597Z,14.67
2017-05-09T05:03:25.429Z,14.68
2017-05-09T05:04:34.254Z,14.68
2017-05-09T05:05:43.086Z,14.71
2017-05-09T05:06:51.926Z,14.65
2017-05-09T05:08:01.083Z,14.65
2017-05-09T05:09:09.916Z,14.7
2017-05-09T05:10:18.762Z,14.63
2017-05-09T05:11:27.584Z,14.65
2017-05-09T05:12:36.413Z,14.65
2017-05-09T05:13:45.565Z,14.62
2017-05-09T05:14:54.405Z,14.68
2017-05-09T05:16:03.241Z,14.88
2017-05-09T05:17:12.067Z,15.12
2017-05-09T05:18:20.895Z,15.28
2017-05-09T05:19:29.732Z,15.45
2017-05-09T05:20:38.572Z,15.41
2017-05-09T05:21:47.401Z,15.36
2017-05-09T05:22:56.242Z,15.36
2017-05-09T05:24:05.075Z,15.41
2017-05-09T05:25:13.904Z,15.38
2017-05-09T05:26:22.761Z,15.48
2017-05-09T05:27:31.597Z,15.36
2017-05-09T05:28:40.429Z,15.38
2017-05-09T05:29:49.259Z,15.52
2017-05-09T05:30:58.085Z,15.61
2017-05-09T05:32:06.920Z,15.69
2017-05-09T05:33:15.750Z,15.73
2017-05-09T05:34:24.582Z,15.78
2017-05-09T05:35:33.412Z,15.88
2017-05-09T05:36:42.246Z,15.91
2017-05-09T05:37:51.075Z,15.96
2017-05-09T05:39:00.226Z,16.01
2017-05-09T05:40:09.064Z,16.01
2017-05-09T05:41:17.892Z,16.11
2017-05-09T05:42:26.729Z,16.27
2017-05-09T05:43:35.556Z,16.3
2017-05-09T05:44:44.396Z,16.38
2017-05-09T05:45:53.226Z,16.58
2017-05-09T05:47:02.056Z,16.73
2017-05-09T05:48:10.886Z,16.78
2017-05-09T05:49:19.716Z,16.81
2017-05-09T05:50:28.550Z,17.02
2017-05-09T05:51:37.509Z,17.02
2017-05-09T05:52:46.945Z,17.1
2017-05-09T05:53:55.779Z,17.24
2017-05-09T05:55:04.621Z,17.32
2017-05-09T05:56:13.451Z,17.3
2017-05-09T05:57:22.282Z,17.35
2017-05-09T05:58:31.116Z,17.42
2017-05-09T05:59:39.946Z,17.54
2017-05-09T06:00:48.809Z,17.64
2017-05-09T06:01:59.460Z,17.71
2017-05-09T06:03:10.236Z,17.86
2017-05-09T06:04:19.074Z,17.89
2017-05-09T06:05:27.918Z,18.09
2017-05-09T06:06:36.750Z,18.17
2017-05-09T06:07:45.587Z,18.21
2017-05-09T06:08:54.733Z,18.4
2017-05-09T06:10:03.569Z,18.46
2017-05-09T06:11:12.402Z,18.51
2017-05-09T06:12:21.265Z,18.74
2017-05-09T06:13:30.418Z,18.72
2017-05-09T06:14:39.254Z,18.76
2017-05-09T06:15:49.372Z,18.94
2017-05-09T06:16:58.725Z,18.95
2017-05-09T06:18:07.766Z,19.02
2017-05-09T06:19:16.876Z,19.2
2017-05-09T06:20:25.707Z,19.35
2017-05-09T06:21:35.181Z,19.4
2017-05-09T06:22:44.164Z,19.54
2017-05-09T06:23:53.302Z,19.46
2017-05-09T06:25:02.411Z,19.61
2017-05-09T06:26:11.300Z,19.8
2017-05-09T06:27:20.235Z,19.95
2017-05-09T06:28:29.071Z,19.83
2017-05-09T06:29:37.904Z,19.9
2017-05-09T06:30:46.730Z,19.98
2017-05-09T06:31:55.642Z,20.07
2017-05-09T06:33:04.564Z,19.97
2017-05-09T06:34:13.407Z,20.17
2017-05-09T06:35:22.249Z,19.98
2017-05-09T06:36:31.079Z,19.85
2017-05-09T06:37:39.914Z,19.87
2017-05-09T06:38:48.755Z,19.77
2017-05-09T06:39:59.159Z,19.62
2017-05-09T06:41:07.987Z,19.65
2017-05-09T06:42:16.822Z,19.61
2017-05-09T06:43:25.658Z,19.67
2017-05-09T06:44:34.544Z,19.7
2017-05-09T06:45:43.374Z,19.76
2017-05-09T06:46:52.525Z,19.72
2017-05-09T06:48:01.367Z,19.6
2017-05-09T06:49:10.207Z,19.76
2017-05-09T06:50:19.036Z,19.77
2017-05-09T06:51:27.875Z,19.72
2017-05-09T06:52:36.708Z,19.73
2017-05-09T06:53:45.543Z,19.77
2017-05-09T06:54:54.374Z,19.79
2017-05-09T06:56:03.208Z,19.8
2017-05-09T06:57:12.042Z,19.77
2017-05-09T06:58:20.875Z,19.83
2017-05-09T06:59:29.709Z,19.9
2017-05-09T07:00:38.543Z,19.92
2017-05-09T07:01:47.426Z,19.85
2017-05-09T07:02:56.282Z,19.91
2017-05-09T07:04:05.116Z,19.87
2017-05-09T07:05:13.951Z,19.9
2017-05-09T07:06:22.777Z,19.94
2017-05-09T07:07:31.616Z,20
2017-05-09T07:08:40.449Z,19.9
2017-05-09T07:09:49.830Z,20.01
2017-05-09T07:10:59.376Z,19.88
2017-05-09T07:12:08.550Z,19.97
2017-05-09T07:13:17.394Z,19.85
2017-05-09T07:14:26.234Z,19.98
2017-05-09T07:15:35.070Z,20.04
2017-05-09T07:16:43.908Z,20.04
2017-05-09T07:17:52.748Z,20.01
2017-05-09T07:19:01.587Z,20.09
2017-05-09T07:20:10.752Z,20
2017-05-09T07:21:19.591Z,20.04
2017-05-09T07:22:28.423Z,20.06
2017-05-09T07:23:37.270Z,20.07
2017-05-09T07:24:46.179Z,20.1
2017-05-09T07:25:55.181Z,20.1
2017-05-09T07:27:04.026Z,20.15
2017-05-09T07:28:13.264Z,20.2
2017-05-09T07:29:23.170Z,20.19
2017-05-09T07:30:32.583Z,20.19
2017-05-09T19:54:34.121Z,23.91
2017-05-09T19:55:42.967Z,24.12
2017-05-09T19:56:51.810Z,24.24
2017-05-09T19:58:00.790Z,24.24
2017-05-09T19:59:10.553Z,24.27
2017-05-09T20:00:19.394Z,24.21
2017-05-09T20:01:28.235Z,24.18
2017-05-09T20:02:37.130Z,24.28
2017-05-09T20:03:46.039Z,24.28
2017-05-09T20:04:56.236Z,24.3
2017-05-09T20:06:05.234Z,24.3
2017-05-09T20:07:14.437Z,24.27
2017-05-09T20:08:23.274Z,24.3
2017-05-09T20:09:32.171Z,24.3
2017-05-09T20:10:41.021Z,24.31
2017-05-09T20:11:52.309Z,24.33
2017-05-09T20:13:01.402Z,24.23
2017-05-09T20:14:10.506Z,24.35
2017-05-09T20:15:20.327Z,24.33
2017-05-09T20:16:29.209Z,24.36
2017-05-09T20:17:38.482Z,24.31
2017-05-09T20:18:47.353Z,24.33
2017-05-09T20:19:57.072Z,24.42
2017-05-09T20:21:05.942Z,24.39
2017-05-09T20:22:15.358Z,24.35
2017-05-09T20:23:24.210Z,24.39
2017-05-09T20:24:33.111Z,24.38
2017-05-09T20:25:42.103Z,24.39
2017-05-09T20:26:50.945Z,24.46
2017-05-09T20:27:59.799Z,24.38
2017-05-09T20:29:08.774Z,24.43
2017-05-09T20:30:17.971Z,24.53
2017-05-09T20:31:26.985Z,24.42
2017-05-09T20:32:36.119Z,24.49
2017-05-09T20:33:46.858Z,24.43
2017-05-09T20:34:55.725Z,24.48
2017-05-09T20:36:04.593Z,24.45
2017-05-09T20:37:13.470Z,24.5
2017-05-09T20:38:22.316Z,24.5
2017-05-09T20:39:32.654Z,24.43
2017-05-09T20:40:42.734Z,24.57
2017-05-09T20:41:51.780Z,24.48
2017-05-09T20:43:01.184Z,24.5
2017-05-09T20:44:10.957Z,24.5
2017-05-09T20:45:20.022Z,24.48
2017-05-09T20:46:29.810Z,24.48
2017-05-09T20:47:39.237Z,24.5
2017-05-09T20:48:48.461Z,24.46
2017-05-09T20:49:57.522Z,24.46
2017-05-09T20:51:06.809Z,24.54
2017-05-09T20:52:15.839Z,24.49
2017-05-09T20:53:25.399Z,24.55
2017-05-09T20:54:34.448Z,24.5
2017-05-09T20:55:43.306Z,24.57
2017-05-09T20:56:52.201Z,24.65
2017-05-09T20:58:01.108Z,24.61
2017-05-09T20:59:10.007Z,24.58
2017-05-09T21:00:19.305Z,24.41
2017-05-09T21:01:28.430Z,24.54
2017-05-09T21:02:37.742Z,24.26
2017-05-09T21:03:47.132Z,24.2
2017-05-09T21:04:56.502Z,24.03
2017-05-09T21:06:05.541Z,23.93
2017-05-09T21:07:14.738Z,23.75
2017-05-09T21:08:23.784Z,23.71
2017-05-09T21:09:32.836Z,23.72
2017-05-09T21:10:41.712Z,23.64
2017-05-09T21:11:51.023Z,23.46
2017-05-09T21:12:59.958Z,23.35
2017-05-09T21:14:08.805Z,23.16
2017-05-09T21:15:17.830Z,23.08
2017-05-09T21:16:26.682Z,22.91
2017-05-09T21:17:35.540Z,22.88
2017-05-09T21:18:44.415Z,22.86
2017-05-09T21:19:53.273Z,22.75
2017-05-09T21:21:02.112Z,22.69
2017-05-09T21:22:11.016Z,22.72
2017-05-09T21:23:19.860Z,22.56
2017-05-09T21:24:28.727Z,22.32
2017-05-09T21:25:37.580Z,22.24
2017-05-09T21:26:46.431Z,22.19
2017-05-09T21:27:55.304Z,22.17
2017-05-09T21:29:04.163Z,22.11
2017-05-09T21:30:13.065Z,21.98
2017-05-09T21:31:21.902Z,21.86
2017-05-09T21:32:30.890Z,21.68
2017-05-09T21:33:39.729Z,21.67
2017-05-09T21:34:48.573Z,21.64
2017-05-09T21:35:57.412Z,21.52
2017-05-09T21:37:06.247Z,21.45
2017-05-09T21:38:15.085Z,21.42
2017-05-09T21:39:23.923Z,21.27
2017-05-09T21:40:32.764Z,21.24
2017-05-09T21:41:41.606Z,21.17
2017-05-09T21:42:50.848Z,21.18
2017-05-09T21:43:59.679Z,21.12
2017-05-09T21:45:08.584Z,21.1
2017-05-09T21:46:17.426Z,21.15
2017-05-09T21:47:26.410Z,20.97
2017-05-09T21:48:35.333Z,20.91
2017-05-09T21:49:44.189Z,20.9
2017-05-09T21:50:53.178Z,20.86
2017-05-09T21:52:02.012Z,20.87
2017-05-09T21:53:10.849Z,20.69
2017-05-09T21:54:20.006Z,20.84
2017-05-09T21:55:28.844Z,20.72
2017-05-09T21:56:37.683Z,20.63
2017-05-09T21:57:46.517Z,20.57
2017-05-09T21:58:55.404Z,20.51
2017-05-09T22:00:04.553Z,20.48
2017-05-09T22:01:13.392Z,20.37
2017-05-09T22:02:22.281Z,20.37
2017-05-09T22:03:31.119Z,20.37
2017-05-09T22:04:39.986Z,20.25
2017-05-09T22:05:48.818Z,20.07
2017-05-09T22:06:57.710Z,20.07
2017-05-09T22:08:06.568Z,20.15
2017-05-09T22:09:15.457Z,20.04
2017-05-09T22:10:24.302Z,19.92
2017-05-09T22:11:33.358Z,19.94
2017-05-09T22:12:42.317Z,19.85
2017-05-09T22:13:51.550Z,19.94
2017-05-09T22:15:01.050Z,19.97
2017-05-09T22:16:10.174Z,19.76
2017-05-09T22:17:20.312Z,19.76
2017-05-09T22:18:29.302Z,19.76
2017-05-09T22:19:38.290Z,19.76
2017-05-09T22:20:47.268Z,19.72
2017-05-09T22:21:56.124Z,19.61
2017-05-09T22:23:05.111Z,19.61
2017-05-09T22:24:14.007Z,19.46
2017-05-09T22:25:23.157Z,19.32
2017-05-09T22:26:31.987Z,19.45
2017-05-09T22:27:40.863Z,19.36
2017-05-09T22:28:49.705Z,19.32
2017-05-09T22:29:58.612Z,19.33
2017-05-09T22:31:07.446Z,19.3
2017-05-09T22:32:16.281Z,19.3
2017-05-09T22:33:25.169Z,19.35
2017-05-09T22:34:34.076Z,19.25
2017-05-09T22:35:42.964Z,19.15
2017-05-09T22:36:52.026Z,19.17
2017-05-09T22:38:01.415Z,19.15
2017-05-09T22:39:10.904Z,19.05
2017-05-09T22:40:20.029Z,18.99
2017-05-09T22:41:29.141Z,18.83
2017-05-09T22:42:38.149Z,18.8
2017-05-09T22:43:47.145Z,18.69
2017-05-09T22:44:56.456Z,18.68
2017-05-09T22:46:05.558Z,18.64
2017-05-09T22:47:14.436Z,18.77
2017-05-09T22:48:23.269Z,18.79
2017-05-09T22:49:32.115Z,18.68
2017-05-09T22:50:40.946Z,18.71
2017-05-09T22:51:49.774Z,18.71
2017-05-09T22:52:58.620Z,18.57
2017-05-09T22:54:07.454Z,18.49
2017-05-09T22:55:16.300Z,18.4
2017-05-09T22:56:25.406Z,18.54
2017-05-09T22:57:34.385Z,18.49
2017-05-09T22:58:43.232Z,18.43
2017-05-09T22:59:52.238Z,18.5
2017-05-09T23:01:01.394Z,18.36
2017-05-09T23:02:10.221Z,18.28
2017-05-09T23:03:19.106Z,18.25
2017-05-09T23:04:27.951Z,18.16
2017-05-09T23:05:36.784Z,18.17
2017-05-09T23:06:45.674Z,18.1
2017-05-09T23:07:54.707Z,18.14
2017-05-09T23:09:03.647Z,18.16
2017-05-09T23:10:12.503Z,18.13
2017-05-09T23:11:21.518Z,18.16
2017-05-09T23:12:30.360Z,17.98
2017-05-09T23:13:39.189Z,17.96
2017-05-09T23:14:48.134Z,18.02
2017-05-09T23:15:57.010Z,17.96
2017-05-09T23:17:05.846Z,17.91
2017-05-09T23:18:14.747Z,17.84
2017-05-09T23:19:23.576Z,17.96
2017-05-09T23:20:32.412Z,17.86
2017-05-09T23:21:41.361Z,17.82
2017-05-09T23:22:50.194Z,17.71
2017-05-09T23:23:59.062Z,17.67
2017-05-09T23:25:07.897Z,17.79
2017-05-09T23:26:16.744Z,17.74
2017-05-09T23:27:25.752Z,17.8
